Time;durP1;ratioP1;P1;durP2;ratioP2;P2;SDS_P1;SDS_P2;PMS_P1;PMS_P2;Temp;Humidity;BMP_temperature;BMP_pressure;BME280_temperature;BME280_humidity;BME280_pressure;Samples;Min_cycle;Max_cycle;Signal;HPM_P1;HPM_P2
2022/04/10 00:02:19;;;;;;;15.07;8.27;;;;;;;14.92;83.46;98164.16;5131779;27;20200;-53
2022/04/10 00:04:46;;;;;;;13.83;8.37;;;;;;;14.92;83.35;98162.38;5131936;27;20190;-53
2022/04/10 00:07:13;;;;;;;11.80;8.57;;;;;;;14.89;83.26;98157.38;5131976;27;20212;-52
2022/04/10 00:09:40;;;;;;;13.93;8.13;;;;;;;14.93;83.30;98160.59;5131962;27;20193;-53
2022/04/10 00:12:08;;;;;;;14.63;8.67;;;;;;;15.01;82.58;98164.34;5131859;27;20190;-53
2022/04/10 00:14:35;;;;;;;16.80;9.27;;;;;;;14.98;83.44;98169.81;5131857;27;20297;-52
2022/04/10 00:17:02;;;;;;;15.57;8.57;;;;;;;15.02;82.82;98171.25;5131824;27;20297;-51
2022/04/10 00:19:31;;;;;;;13.67;8.77;;;;;;;15.10;82.52;98176.81;5131850;27;20198;-51
2022/04/10 00:21:58;;;;;;;14.07;9.20;;;;;;;15.02;83.65;98176.47;5131712;27;20194;-50
2022/04/10 00:24:25;;;;;;;16.20;8.53;;;;;;;14.89;84.71;98176.50;5131717;27;20217;-54
2022/04/10 00:26:52;;;;;;;15.23;9.23;;;;;;;14.83;85.32;98176.06;5131616;27;20362;-53
2022/04/10 00:29:19;;;;;;;14.80;9.27;;;;;;;14.86;85.12;98173.25;5131490;27;20204;-53
2022/04/10 00:31:46;;;;;;;16.23;8.47;;;;;;;14.94;84.40;98173.56;5131704;27;20205;-53
2022/04/10 00:34:14;;;;;;;16.13;8.93;;;;;;;14.87;85.42;98167.09;5131737;27;20684;-53
2022/04/10 00:36:42;;;;;;;13.03;8.43;;;;;;;14.91;85.34;98165.91;5131655;27;20657;-54
2022/04/10 00:39:09;;;;;;;18.80;9.03;;;;;;;14.93;85.10;98171.88;5131648;27;20215;-53
2022/04/10 00:41:36;;;;;;;23.23;10.00;;;;;;;14.92;85.12;98174.59;5131599;27;20197;-54
2022/04/10 00:44:08;;;;;;;13.43;8.30;;;;;;;14.85;85.42;98175.03;5131145;27;20676;-52
2022/04/10 00:46:35;;;;;;;17.83;9.00;;;;;;;14.75;86.79;98175.75;5131232;27;20194;-53
2022/04/10 00:49:02;;;;;;;11.77;8.50;;;;;;;14.67;87.98;98178.03;5131230;27;20196;-53
2022/04/10 00:51:42;;;;;;;17.67;8.30;;;;;;;14.63;88.45;98181.78;5131295;27;20232;-52
2022/04/10 00:54:12;;;;;;;18.73;8.67;;;;;;;14.65;88.49;98182.53;5131207;27;20673;-51
2022/04/10 00:56:39;;;;;;;20.00;8.67;;;;;;;14.65;88.26;98180.75;5131266;27;20289;-53
2022/04/10 00:59:07;;;;;;;15.23;8.53;;;;;;;14.66;87.32;98171.13;5131293;27;20190;-53
2022/04/10 01:01:35;;;;;;;10.07;7.87;;;;;;;14.78;86.92;98189.44;5131193;27;20190;-52
2022/04/10 01:04:02;;;;;;;13.27;6.53;;;;;;;14.71;88.08;98189.94;5131026;27;20228;-52
2022/04/10 01:06:30;;;;;;;10.93;6.43;;;;;;;14.68;88.24;98188.34;5131255;27;20653;-52
2022/04/10 01:08:58;;;;;;;10.63;6.50;;;;;;;14.58;88.98;98187.28;5131030;27;20194;-53
2022/04/10 01:11:26;;;;;;;11.70;5.77;;;;;;;14.51;89.47;98176.44;5131466;27;20258;-51
2022/04/10 01:13:54;;;;;;;13.10;6.00;;;;;;;14.33;90.24;98168.94;5131092;27;20319;-51
2022/04/10 01:16:22;;;;;;;10.57;6.50;;;;;;;14.38;90.72;98174.69;5130955;28;20197;-52
2022/04/10 01:18:49;;;;;;;11.70;6.57;;;;;;;14.27;92.15;98180.63;5131014;28;20190;-52
2022/04/10 01:21:23;;;;;;;7.93;6.17;;;;;;;14.34;91.78;98178.44;5130943;28;20281;-52
2022/04/10 01:23:52;;;;;;;14.17;6.23;;;;;;;14.46;90.58;98188.09;5130634;28;20236;-52
2022/04/10 01:26:19;;;;;;;11.83;6.20;;;;;;;14.51;89.65;98173.81;5120400;28;20222;-51
2022/04/10 01:28:59;;;;;;;11.67;5.67;;;;;;;14.45;90.46;98184.66;5112444;28;20589;-52
2022/04/10 01:31:27;;;;;;;7.10;5.80;;;;;;;14.32;92.02;98191.59;5114535;28;20198;-53
2022/04/10 01:33:57;;;;;;;14.90;6.10;;;;;;;14.32;92.24;98180.31;5114485;28;20281;-53
2022/04/10 01:36:25;;;;;;;11.10;5.33;;;;;;;14.42;91.54;98177.03;5114403;28;20197;-53
2022/04/10 01:38:55;;;;;;;11.67;5.17;;;;;;;14.43;91.83;98173.50;5114485;28;20306;-54
2022/04/10 01:41:22;;;;;;;8.50;5.67;;;;;;;14.45;91.90;98176.81;5114294;28;20248;-53
2022/04/10 01:43:50;;;;;;;9.07;4.77;;;;;;;14.50;91.32;98184.38;5114162;28;20214;-51
2022/04/10 01:46:17;;;;;;;10.80;5.23;;;;;;;14.42;91.50;98166.59;5114312;28;20705;-53
2022/04/10 01:48:45;;;;;;;9.03;4.63;;;;;;;14.48;91.57;98167.97;5114405;28;20589;-53
2022/04/10 01:51:12;;;;;;;9.07;5.30;;;;;;;14.51;91.11;98165.16;5114231;28;20209;-53
2022/04/10 01:53:39;;;;;;;10.50;5.03;;;;;;;14.48;91.62;98168.78;5114376;28;20557;-51
2022/04/10 01:56:08;;;;;;;10.10;5.43;;;;;;;14.51;91.74;98159.94;5114045;28;20251;-53
2022/04/10 01:58:37;;;;;;;10.37;5.23;;;;;;;14.45;92.04;98160.31;5114169;28;20678;-52
2022/04/10 02:01:04;;;;;;;12.53;5.27;;;;;;;14.51;91.54;98155.53;5113571;28;20195;-52
2022/04/10 02:03:31;;;;;;;11.63;5.23;;;;;;;14.60;90.94;98151.47;5114109;28;20324;-54
2022/04/10 02:06:00;;;;;;;9.60;5.00;;;;;;;14.70;89.81;98160.38;5114164;28;20194;-51
2022/04/10 02:08:27;;;;;;;7.20;4.67;;;;;;;14.60;90.51;98159.31;5114519;28;20191;-56
2022/04/10 02:10:54;;;;;;;8.77;4.93;;;;;;;14.55;90.64;98160.56;5114001;28;20220;-52
2022/04/10 02:13:23;;;;;;;11.63;5.43;;;;;;;14.45;91.33;98150.72;5113884;28;20186;-52
2022/04/10 02:15:51;;;;;;;10.90;4.83;;;;;;;14.46;91.40;98157.63;5113895;28;20605;-54
2022/04/10 02:18:18;;;;;;;9.20;5.10;;;;;;;14.41;91.62;98159.72;5114155;28;20225;-51
2022/04/10 02:20:45;;;;;;;7.40;5.20;;;;;;;14.41;91.93;98161.47;5113598;28;20252;-51
2022/04/10 02:23:12;;;;;;;10.10;4.73;;;;;;;14.29;92.56;98157.88;5113596;28;20226;-49
2022/04/10 02:25:39;;;;;;;8.80;4.77;;;;;;;14.26;92.50;98152.84;5113658;28;20231;-51
2022/04/10 02:28:07;;;;;;;9.67;5.53;;;;;;;14.33;92.96;98153.28;5113358;28;20199;-49
2022/04/10 02:30:35;;;;;;;13.13;5.53;;;;;;;14.28;93.07;98145.75;5113969;28;20205;-50
2022/04/10 02:33:05;;;;;;;8.20;4.93;;;;;;;14.29;93.29;98144.81;5113601;28;20277;-52
2022/04/10 02:35:32;;;;;;;9.63;4.73;;;;;;;14.25;93.34;98143.34;5113714;28;20203;-50
2022/04/10 02:37:59;;;;;;;10.00;5.43;;;;;;;14.06;94.81;98142.88;5113392;28;20198;-52
2022/04/10 02:40:27;;;;;;;8.10;4.70;;;;;;;14.01;95.49;98147.53;5111899;28;20199;-51
2022/04/10 02:42:54;;;;;;;7.73;4.77;;;;;;;13.94;96.38;98149.72;5113089;28;20567;-53
2022/04/10 02:45:20;;;;;;;15.73;4.80;;;;;;;13.96;96.54;98154.84;5113323;28;20687;-52
2022/04/10 02:47:49;;;;;;;11.30;4.97;;;;;;;14.01;95.97;98150.13;5113170;28;20198;-53
2022/04/10 02:50:16;;;;;;;6.73;4.33;;;;;;;13.98;95.82;98151.19;5113232;28;20701;-52
2022/04/10 02:52:43;;;;;;;8.67;4.10;;;;;;;13.98;95.94;98151.19;5113076;28;20293;-51
2022/04/10 02:55:11;;;;;;;7.80;4.43;;;;;;;13.99;95.97;98144.22;5113075;28;20282;-52
2022/04/10 02:57:37;;;;;;;11.80;5.37;;;;;;;13.93;96.29;98145.44;5113301;28;20201;-53
2022/04/10 03:00:06;;;;;;;9.97;4.30;;;;;;;13.98;95.47;98132.94;5113113;28;20199;-50
2022/04/10 03:02:33;;;;;;;10.23;4.63;;;;;;;13.93;96.10;98139.38;5113216;28;20199;-51
2022/04/10 03:05:02;;;;;;;12.97;5.33;;;;;;;13.91;96.25;98142.06;5112316;28;20734;-53
2022/04/10 03:07:29;;;;;;;6.87;3.80;;;;;;;13.90;96.49;98135.19;5112709;28;20198;-53
2022/04/10 03:09:56;;;;;;;12.33;4.90;;;;;;;13.85;96.96;98146.84;5112361;28;20195;-52
2022/04/10 03:12:23;;;;;;;10.87;4.40;;;;;;;13.81;97.27;98134.00;5112545;28;20195;-52
2022/04/10 03:14:50;;;;;;;12.60;4.77;;;;;;;13.78;97.69;98144.63;5112729;28;20658;-51
2022/04/10 03:17:17;;;;;;;8.73;4.17;;;;;;;13.79;97.51;98138.47;5112458;28;20285;-51
2022/04/10 03:19:44;;;;;;;10.37;4.93;;;;;;;13.83;97.40;98149.56;5112444;28;20194;-51
2022/04/10 03:22:12;;;;;;;7.53;5.00;;;;;;;13.63;98.51;98135.19;5112327;28;20205;-53
2022/04/10 03:24:39;;;;;;;8.97;4.63;;;;;;;13.70;98.23;98136.47;5112350;28;20218;-52
2022/04/10 03:27:06;;;;;;;8.30;4.23;;;;;;;13.75;97.94;98142.22;5112295;28;20718;-52
2022/04/10 03:29:33;;;;;;;10.57;4.57;;;;;;;13.69;98.47;98136.56;5112291;28;20282;-52
2022/04/10 03:32:00;;;;;;;11.10;4.60;;;;;;;13.64;99.16;98133.41;5112265;28;20190;-51
2022/04/10 03:34:27;;;;;;;9.63;4.80;;;;;;;13.65;99.02;98128.09;5112333;28;20194;-51
2022/04/10 03:36:54;;;;;;;12.53;5.77;;;;;;;13.55;99.38;98126.97;5111961;28;20199;-50
2022/04/10 03:39:22;;;;;;;8.90;4.70;;;;;;;13.47;100.00;98126.63;5112442;28;20277;-52
2022/04/10 03:41:49;;;;;;;6.27;4.47;;;;;;;13.56;100.00;98135.66;5112174;28;20251;-52
2022/04/10 03:44:16;;;;;;;10.77;4.60;;;;;;;13.55;100.00;98136.56;5111957;28;20218;-53
2022/04/10 03:46:43;;;;;;;8.90;4.17;;;;;;;13.57;99.84;98140.75;5111919;28;20199;-52
2022/04/10 03:49:10;;;;;;;13.40;4.77;;;;;;;13.55;100.00;98140.03;5111778;28;20678;-52
2022/04/10 03:51:37;;;;;;;9.00;4.57;;;;;;;13.56;99.89;98143.47;5111425;28;20285;-52
2022/04/10 03:54:04;;;;;;;11.23;5.57;;;;;;;13.55;99.78;98141.78;5111893;28;20197;-54
2022/04/10 03:56:33;;;;;;;12.87;4.67;;;;;;;13.44;100.00;98148.50;5111904;28;20238;-53
2022/04/10 03:59:00;;;;;;;11.93;5.20;;;;;;;13.43;100.00;98153.84;5111871;28;20202;-53
2022/04/10 04:01:27;;;;;;;13.07;4.93;;;;;;;13.40;100.00;98154.03;5116369;27;20194;-50
2022/04/10 04:03:54;;;;;;;11.13;5.20;;;;;;;13.42;100.00;98157.38;5097697;28;20231;-50
2022/04/10 04:06:21;;;;;;;13.40;4.83;;;;;;;13.49;100.00;98163.88;5091135;28;20223;-51
2022/04/10 04:08:48;;;;;;;10.70;5.20;;;;;;;13.49;100.00;98163.03;5090334;28;20254;-51
2022/04/10 04:11:15;;;;;;;10.50;5.10;;;;;;;13.63;99.88;98176.91;5090646;28;20223;-51
2022/04/10 04:13:43;;;;;;;10.07;4.60;;;;;;;13.65;99.82;98180.25;5090638;28;20221;-52
2022/04/10 04:16:10;;;;;;;8.30;4.23;;;;;;;13.86;100.00;98172.84;5090971;28;20750;-53
2022/04/10 04:18:38;;;;;;;13.00;5.00;;;;;;;13.86;100.00;98185.03;5090506;28;20254;-52
2022/04/10 04:21:05;;;;;;;11.10;5.10;;;;;;;13.92;100.00;98200.28;5090586;28;20630;-51
2022/04/10 04:23:32;;;;;;;13.97;4.77;;;;;;;13.79;99.25;98208.03;5089661;28;20236;-51
2022/04/10 04:25:59;;;;;;;16.10;5.27;;;;;;;13.78;99.00;98216.81;5090541;28;20249;-51
2022/04/10 04:28:26;;;;;;;10.17;6.70;;;;;;;13.83;98.84;98209.53;5107430;27;20301;-53
2022/04/10 04:30:54;;;;;;;11.60;4.40;;;;;;;13.89;98.87;98208.31;5110372;28;20224;-52
2022/04/10 04:33:21;;;;;;;11.57;4.80;;;;;;;13.93;98.27;98210.63;5110524;28;20214;-50
2022/04/10 04:35:48;;;;;;;15.53;5.10;;;;;;;13.99;98.15;98212.03;5110652;28;20219;-52
2022/04/10 04:38:17;;;;;;;13.03;5.43;;;;;;;14.02;97.29;98204.81;5110731;28;20665;-52
2022/04/10 04:40:44;;;;;;;11.17;4.80;;;;;;;14.01;97.30;98207.53;5110127;28;20222;-54
2022/04/10 04:43:11;;;;;;;8.97;4.73;;;;;;;14.10;96.70;98222.63;5110894;28;20202;-51
2022/04/10 04:45:38;;;;;;;13.47;5.13;;;;;;;14.07;96.46;98221.03;5110749;28;20218;-51
2022/04/10 04:48:07;;;;;;;13.47;4.97;;;;;;;14.14;96.56;98214.47;5111026;28;20692;-50
2022/04/10 04:50:34;;;;;;;13.50;4.97;;;;;;;14.14;95.97;98213.66;5111013;28;20624;-51
2022/04/10 04:53:01;;;;;;;14.10;6.17;;;;;;;14.06;97.19;98215.91;5110612;28;20195;-51
2022/04/10 04:55:27;;;;;;;12.03;5.90;;;;;;;14.08;96.92;98211.44;5110866;28;20654;-54
2022/04/10 04:57:55;;;;;;;14.53;6.03;;;;;;;14.06;97.22;98221.13;5110425;28;20204;-53
2022/04/10 05:00:22;;;;;;;9.83;5.63;;;;;;;14.16;96.54;98206.56;5110534;28;20194;-53
2022/04/10 05:02:49;;;;;;;9.10;6.47;;;;;;;14.10;96.73;98205.19;5109929;28;20198;-53
2022/04/10 05:05:17;;;;;;;12.40;5.50;;;;;;;14.12;97.23;98205.06;5110477;28;20396;-52
2022/04/10 05:07:44;;;;;;;15.13;6.27;;;;;;;14.12;97.19;98210.28;5112405;28;20198;-57
2022/04/10 05:10:11;;;;;;;16.53;6.70;;;;;;;14.12;96.45;98205.91;5131084;27;20194;-52
2022/04/10 05:12:38;;;;;;;21.37;6.83;;;;;;;14.19;96.56;98208.97;5130768;27;20204;-51
2022/04/10 05:15:07;;;;;;;15.93;6.73;;;;;;;14.20;96.11;98205.44;5122899;27;20197;-51
2022/04/10 05:17:35;;;;;;;16.47;6.70;;;;;;;14.22;95.94;98208.75;5121254;28;20202;-52
2022/04/10 05:20:03;;;;;;;9.53;7.23;;;;;;;14.30;95.05;98213.50;5119177;28;20199;-51
2022/04/10 05:22:31;;;;;;;9.17;7.07;;;;;;;14.31;95.30;98220.41;5119371;28;20295;-51
2022/04/10 05:24:58;;;;;;;15.37;7.00;;;;;;;14.27;95.45;98218.91;5120920;28;20593;-51
2022/04/10 05:27:26;;;;;;;14.40;7.03;;;;;;;14.34;94.60;98225.41;5119469;28;20218;-51
2022/04/10 05:29:54;;;;;;;14.33;6.77;;;;;;;14.38;94.81;98227.72;5127847;28;20201;-51
2022/04/10 05:32:21;;;;;;;14.90;6.27;;;;;;;14.36;94.80;98228.75;5130927;28;20658;-52
2022/04/10 05:34:48;;;;;;;13.90;7.50;;;;;;;14.43;94.39;98230.94;5130992;28;20577;-50
2022/04/10 05:37:15;;;;;;;14.00;6.70;;;;;;;14.51;93.77;98227.81;5130730;28;20201;-50
2022/04/10 05:39:43;;;;;;;13.97;7.17;;;;;;;14.39;94.62;98224.22;5131230;28;20714;-52
2022/04/10 05:42:10;;;;;;;12.10;7.33;;;;;;;14.33;95.31;98218.53;5130537;28;20622;-51
2022/04/10 05:44:37;;;;;;;15.07;6.90;;;;;;;14.35;95.26;98225.31;5128345;28;20746;-54
2022/04/10 05:47:05;;;;;;;15.00;7.60;;;;;;;14.42;94.91;98220.59;5120087;28;20197;-54
2022/04/10 05:49:32;;;;;;;14.07;7.03;;;;;;;14.31;95.84;98223.84;5115866;28;20195;-55
2022/04/10 05:51:59;;;;;;;20.67;6.87;;;;;;;14.37;95.21;98220.00;5118721;28;20197;-53
2022/04/10 05:54:25;;;;;;;15.33;7.30;;;;;;;14.53;94.50;98215.50;5119871;28;20194;-52
2022/04/10 05:56:55;;;;;;;12.30;7.50;;;;;;;14.62;94.11;98214.06;5119076;28;20686;-52
2022/04/10 05:59:22;;;;;;;15.00;7.77;;;;;;;14.56;94.06;98220.50;5118076;28;20629;-52
2022/04/10 06:01:49;;;;;;;15.20;8.57;;;;;;;14.65;93.50;98221.69;5115654;28;20666;-53
2022/04/10 06:04:16;;;;;;;17.60;7.97;;;;;;;14.79;92.74;98221.59;5118763;28;20201;-54
2022/04/10 06:06:43;;;;;;;14.33;7.37;;;;;;;14.97;91.32;98220.38;5119936;28;20193;-54
2022/04/10 06:09:10;;;;;;;12.80;8.27;;;;;;;15.07;90.68;98215.38;5117595;28;20186;-54
2022/04/10 06:11:37;;;;;;;22.83;10.20;;;;;;;15.07;90.98;98212.75;5118763;28;20194;-54
2022/04/10 06:14:05;;;;;;;18.00;10.40;;;;;;;15.10;90.47;98210.78;5120531;27;20798;-52
2022/04/10 06:16:32;;;;;;;17.07;10.60;;;;;;;15.09;90.39;98216.09;5119882;27;20200;-51
2022/04/10 06:18:59;;;;;;;22.70;11.27;;;;;;;15.21;90.15;98221.34;5122174;27;20205;-54
2022/04/10 06:21:26;;;;;;;15.53;9.90;;;;;;;15.13;89.59;98228.00;5123405;27;20273;-52
2022/04/10 06:23:53;;;;;;;18.70;9.90;;;;;;;15.08;90.00;98224.88;5121862;27;20187;-52
2022/04/10 06:26:21;;;;;;;21.23;9.80;;;;;;;15.22;89.19;98220.41;5121604;27;20218;-51
2022/04/10 06:28:48;;;;;;;20.97;10.77;;;;;;;15.39;87.86;98206.16;5112578;28;20197;-52
2022/04/10 06:31:16;;;;;;;15.37;8.73;;;;;;;15.40;86.94;98197.38;5125699;27;20204;-51
2022/04/10 06:33:43;;;;;;;15.27;8.97;;;;;;;15.54;86.49;98209.50;5133879;27;20190;-50
2022/04/10 06:36:10;;;;;;;14.87;9.17;;;;;;;15.55;86.01;98205.97;5133683;27;20281;-54
2022/04/10 06:38:37;;;;;;;15.23;9.47;;;;;;;15.44;86.93;98201.47;5129942;27;20222;-51
2022/04/10 06:41:04;;;;;;;14.30;9.20;;;;;;;15.38;87.70;98206.25;5122289;27;20212;-53
2022/04/10 06:43:31;;;;;;;20.27;9.30;;;;;;;15.40;87.63;98200.00;5123214;27;20328;-55
2022/04/10 06:45:58;;;;;;;14.73;9.90;;;;;;;15.41;87.90;98204.28;5118558;27;20293;-52
2022/04/10 06:48:26;;;;;;;18.90;9.70;;;;;;;15.48;88.54;98204.69;5130309;27;20570;-54
2022/04/10 06:50:53;;;;;;;24.43;10.57;;;;;;;15.59;87.59;98210.03;5133207;27;20198;-55
2022/04/10 06:53:20;;;;;;;14.40;9.57;;;;;;;15.69;86.46;98207.63;5130229;27;20203;-53
2022/04/10 06:55:47;;;;;;;19.87;9.50;;;;;;;15.75;85.79;98208.03;5117773;27;20191;-50
2022/04/10 06:58:15;;;;;;;18.43;10.10;;;;;;;15.91;85.52;98207.78;5119925;27;20270;-52
2022/04/10 07:00:42;;;;;;;14.13;5.93;;;;;;;16.05;82.02;98202.38;5126100;27;20195;-51
2022/04/10 07:03:09;;;;;;;11.43;6.50;;;;;;;16.32;80.95;98212.66;5123716;27;20277;-51
2022/04/10 07:05:39;;;;;;;14.13;6.33;;;;;;;16.67;79.10;98213.53;5113880;27;20219;-51
2022/04/10 07:08:06;;;;;;;12.37;6.10;;;;;;;16.93;76.00;98205.53;5120021;27;20241;-53
2022/04/10 07:10:33;;;;;;;12.20;6.47;;;;;;;17.32;73.57;98199.84;5113050;27;20206;-53
2022/04/10 07:13:00;;;;;;;14.60;6.30;;;;;;;17.38;72.65;98198.56;5126893;27;20191;-52
2022/04/10 07:15:27;;;;;;;11.70;6.80;;;;;;;17.50;71.45;98196.75;5115044;27;20578;-52
2022/04/10 07:17:56;;;;;;;11.50;5.83;;;;;;;17.86;70.47;98191.25;5122974;27;20285;-53
2022/04/10 07:20:23;;;;;;;16.50;6.80;;;;;;;18.16;68.25;98189.78;5122260;27;20197;-52
2022/04/10 07:25:35;;;;;;;14.07;6.57;;;;;;;18.34;66.34;98194.38;5110510;28;20248;-53
2022/04/10 07:28:03;;;;;;;15.37;6.77;;;;;;;18.30;66.65;98203.44;5111715;28;20233;-52
2022/04/10 07:30:31;;;;;;;18.00;7.93;;;;;;;18.51;65.53;98206.13;5110827;27;20209;-51
2022/04/10 07:32:59;;;;;;;12.80;6.97;;;;;;;18.68;64.61;98215.28;5115504;27;20671;-52
2022/04/10 07:35:26;;;;;;;14.50;6.30;;;;;;;19.48;62.13;98213.75;5112163;28;20729;-55
2022/04/10 07:37:55;;;;;;;11.25;6.85;;;;;;;20.34;58.05;98222.03;5112145;28;20194;-52
2022/04/10 07:40:22;;;;;;;18.10;7.30;;;;;;;21.17;55.09;98218.84;5112039;28;20194;-53
2022/04/10 07:42:49;;;;;;;11.73;6.60;;;;;;;22.15;52.05;98216.53;5118612;27;20216;-52
2022/04/10 07:47:57;;;;;;;12.57;5.80;;;;;;;24.91;44.10;98208.38;5117597;27;20198;-52
2022/04/10 07:50:24;;;;;;;10.18;5.63;;;;;;;26.00;41.49;98213.97;5119250;27;20194;-52
2022/04/10 07:52:51;;;;;;;15.35;5.32;;;;;;;27.15;39.31;98209.56;5120615;27;20204;-53
2022/04/10 07:55:19;;;;;;;12.65;5.68;;;;;;;27.91;37.57;98216.41;5128830;27;20570;-53
2022/04/10 07:57:46;;;;;;;8.32;4.78;;;;;;;28.56;36.45;98204.06;5117560;27;20285;-53
2022/04/10 08:00:14;;;;;;;10.40;5.45;;;;;;;28.94;35.04;98215.31;5111175;28;20202;-53
2022/04/10 08:02:42;;;;;;;9.07;5.13;;;;;;;29.08;34.93;98215.25;5112278;27;20845;-53
2022/04/10 08:05:10;;;;;;;13.63;5.18;;;;;;;29.35;34.38;98216.25;5090064;28;20715;-54
2022/04/10 08:07:36;;;;;;;13.65;5.82;;;;;;;27.62;36.54;98217.28;5103395;27;20274;-52
2022/04/10 08:10:04;;;;;;;12.35;5.90;;;;;;;26.89;37.86;98230.38;5120719;27;20207;-52
2022/04/10 08:12:32;;;;;;;11.52;5.95;;;;;;;24.81;41.64;98222.81;5120118;27;20240;-52
2022/04/10 08:14:59;;;;;;;12.55;5.60;;;;;;;23.49;44.51;98219.00;5117862;27;20199;-52
2022/04/10 08:17:26;;;;;;;16.30;6.20;;;;;;;22.85;46.68;98228.16;5112005;27;20277;-52
2022/04/10 08:19:53;;;;;;;12.30;5.88;;;;;;;21.79;49.64;98243.81;5110287;28;20205;-53
2022/04/10 08:22:24;;;;;;;11.57;5.97;;;;;;;21.60;50.45;98258.75;5108217;28;20194;-52
2022/04/10 08:24:51;;;;;;;9.27;6.22;;;;;;;21.54;51.24;98282.28;5110140;28;20203;-52
2022/04/10 08:27:18;;;;;;;13.82;7.13;;;;;;;21.21;53.00;98288.88;5110282;28;20334;-52
2022/04/10 08:29:46;;;;;;;21.27;7.25;;;;;;;20.90;54.44;98273.16;5117289;27;20193;-52
2022/04/10 08:32:13;;;;;;;13.35;7.25;;;;;;;20.46;55.99;98268.41;5125619;27;20281;-53
2022/04/10 08:34:40;;;;;;;11.15;6.75;;;;;;;19.96;57.95;98268.41;5128358;27;20197;-53
2022/04/10 08:37:07;;;;;;;12.15;7.05;;;;;;;19.55;60.03;98278.03;5112924;27;20199;-53
2022/04/10 08:39:35;;;;;;;20.98;7.00;;;;;;;19.23;64.13;98270.22;5097082;28;20607;-53
2022/04/10 08:42:04;;;;;;;15.25;7.80;;;;;;;18.86;69.42;98266.34;5090598;28;20221;-52
2022/04/10 08:44:32;;;;;;;13.88;7.38;;;;;;;18.44;77.34;98260.13;5090507;28;20282;-52
2022/04/10 08:47:01;;;;;;;18.75;7.80;;;;;;;18.09;84.03;98244.56;5090225;28;20227;-53
2022/04/10 08:49:30;;;;;;;16.07;7.27;;;;;;;17.87;87.32;98231.47;5089925;28;20199;-52
2022/04/10 08:51:58;;;;;;;14.47;7.33;;;;;;;17.31;89.85;98229.66;5089793;28;20529;-53
2022/04/10 08:54:26;;;;;;;17.07;7.93;;;;;;;17.22;95.98;98240.84;5090284;28;20284;-55
2022/04/10 08:56:55;;;;;;;14.60;8.27;;;;;;;17.18;98.10;98244.63;5089985;28;20202;-53
2022/04/10 08:59:22;;;;;;;19.33;8.53;;;;;;;17.08;99.73;98248.91;5090521;28;20231;-53
2022/04/10 09:01:53;;;;;;;16.73;8.20;;;;;;;16.91;100.00;98244.13;5090250;28;20286;-54
2022/04/10 09:04:23;;;;;;;13.93;8.57;;;;;;;16.79;100.00;98208.34;5089473;28;20207;-53
2022/04/10 09:07:00;;;;;;;17.30;8.60;;;;;;;16.93;100.00;98218.63;5089888;28;20706;-53
2022/04/10 09:09:27;;;;;;;17.27;8.30;;;;;;;17.07;95.90;98218.41;5090028;28;20199;-53
2022/04/10 09:11:55;;;;;;;17.50;8.80;;;;;;;17.14;94.64;98211.75;5089626;28;20196;-54
2022/04/10 09:14:23;;;;;;;16.33;8.53;;;;;;;17.19;94.39;98207.00;5089179;28;20290;-53
2022/04/10 09:17:11;;;;;;;17.70;8.57;;;;;;;17.16;94.68;98212.44;5090286;28;20197;-53
2022/04/10 09:19:41;;;;;;;15.10;10.47;;;;;;;17.03;100.00;98209.13;5089998;28;20582;-53
2022/04/10 09:22:26;;;;;;;18.90;11.70;;;;;;;16.94;100.00;98199.31;5089993;28;20206;-53
2022/04/10 09:25:11;;;;;;;20.07;11.37;;;;;;;16.95;95.26;98193.94;5090153;28;20440;-52
2022/04/10 09:27:40;;;;;;;16.27;11.47;;;;;;;17.64;93.22;98205.25;5089853;28;20231;-53
2022/04/10 09:30:09;;;;;;;14.87;11.87;;;;;;;18.01;88.26;98212.84;5089977;28;20617;-53
2022/04/10 09:32:40;;;;;;;19.60;11.27;;;;;;;18.32;85.62;98211.22;5090051;28;20195;-53
2022/04/10 09:35:10;;;;;;;15.97;10.73;;;;;;;19.37;78.81;98203.28;5089966;28;20747;-53
2022/04/10 09:37:49;;;;;;;17.08;8.88;;;;;;;20.58;67.78;98211.94;5097073;28;20688;-54
2022/04/10 09:40:37;;;;;;;11.95;8.13;;;;;;;21.42;61.84;98205.06;5118133;28;20201;-52
2022/04/10 09:43:05;;;;;;;12.05;7.28;;;;;;;23.70;52.30;98192.97;5120632;28;20580;-53
2022/04/10 09:45:35;;;;;;;14.43;9.20;;;;;;;24.29;47.48;98212.44;5119476;28;20250;-52
2022/04/10 09:48:24;;;;;;;16.17;8.73;;;;;;;23.41;48.76;98208.38;5118932;28;20652;-52
2022/04/10 09:50:53;;;;;;;10.85;8.38;;;;;;;22.77;51.06;98199.00;5114379;27;20194;-53
2022/04/10 09:53:20;;;;;;;11.50;7.43;;;;;;;22.94;50.66;98195.50;5123625;27;20657;-53
2022/04/10 09:55:54;;;;;;;15.30;9.98;;;;;;;22.56;52.69;98195.81;5124926;27;20250;-53
2022/04/10 09:58:22;;;;;;;15.10;7.65;;;;;;;21.74;54.19;98194.09;5123859;27;20195;-53
2022/04/10 10:00:51;;;;;;;10.75;7.63;;;;;;;21.28;56.02;98192.31;5122693;27;20191;-53
2022/04/10 10:03:19;;;;;;;13.50;7.75;;;;;;;21.27;56.32;98196.75;5123828;27;20202;-53
2022/04/10 10:05:46;;;;;;;8.70;7.47;;;;;;;21.52;56.23;98197.09;5122994;27;20220;-53
2022/04/10 10:08:15;;;;;;;8.82;7.72;;;;;;;21.92;55.24;98191.47;5124001;27;20202;-52
2022/04/10 10:10:42;;;;;;;13.07;7.78;;;;;;;22.26;53.33;98186.44;5124228;27;20186;-52
2022/04/10 10:13:09;;;;;;;10.38;7.55;;;;;;;22.16;53.52;98183.84;5123424;27;20196;-52
2022/04/10 10:15:37;;;;;;;9.07;7.22;;;;;;;21.99;54.12;98179.38;5123899;27;20579;-53
2022/04/10 10:18:05;;;;;;;13.88;8.52;;;;;;;21.72;55.69;98177.53;5122177;27;20199;-53
2022/04/10 10:20:33;;;;;;;11.80;7.95;;;;;;;21.38;56.35;98166.72;5122714;27;20285;-52
2022/04/10 10:23:03;;;;;;;11.07;8.00;;;;;;;21.17;56.14;98161.63;5122489;27;20600;-53
2022/04/10 10:25:40;;;;;;;14.68;9.05;;;;;;;21.22;58.06;98150.69;5121321;27;20197;-53
2022/04/10 10:28:34;;;;;;;11.13;8.52;;;;;;;21.21;58.26;98155.13;5121094;27;20193;-53
2022/04/10 10:31:21;;;;;;;9.45;7.22;;;;;;;21.40;54.35;98145.47;5121570;27;20205;-52
2022/04/10 10:33:50;;;;;;;12.18;7.53;;;;;;;21.40;55.12;98143.66;5122959;27;20301;-53
2022/04/10 10:36:23;;;;;;;12.10;8.35;;;;;;;21.25;55.96;98134.53;5122886;27;20190;-53
2022/04/10 10:38:54;;;;;;;12.50;8.38;;;;;;;21.12;56.38;98142.75;5119613;27;20207;-53
2022/04/10 10:41:37;;;;;;;10.73;7.30;;;;;;;21.12;55.41;98136.63;5122560;27;20190;-53
2022/04/10 10:44:41;;;;;;;9.80;7.32;;;;;;;20.86;54.64;98137.28;5125809;27;20197;-53
2022/04/10 10:47:17;;;;;;;12.20;6.80;;;;;;;21.07;54.94;98136.25;5120474;27;20214;-53
2022/04/10 10:49:45;;;;;;;10.60;7.35;;;;;;;21.25;54.91;98134.53;5127718;27;20576;-53
2022/04/10 10:52:13;;;;;;;9.35;6.65;;;;;;;21.18;54.45;98133.44;5119191;27;20198;-53
2022/04/10 10:54:46;;;;;;;9.77;6.95;;;;;;;21.29;54.47;98136.75;5122644;27;20190;-54
2022/04/10 10:57:39;;;;;;;12.73;7.85;;;;;;;20.81;56.51;98136.84;5119402;27;20183;-53
2022/04/10 11:00:11;;;;;;;12.50;7.85;;;;;;;20.80;54.81;98126.44;5122452;27;20289;-53
2022/04/10 11:02:39;;;;;;;10.85;7.47;;;;;;;20.92;54.75;98120.03;5119802;27;20195;-53
2022/04/10 11:05:07;;;;;;;10.00;6.95;;;;;;;21.29;53.43;98114.81;5103779;27;20191;-53
2022/04/10 11:07:39;;;;;;;10.20;7.03;;;;;;;21.22;52.64;98111.09;5121902;27;20411;-53
2022/04/10 11:10:09;;;;;;;7.65;6.30;;;;;;;21.44;52.00;98112.53;5121835;27;20634;-55
2022/04/10 11:12:48;;;;;;;10.07;6.38;;;;;;;21.59;51.19;98106.59;5119961;27;20213;-52
2022/04/10 11:15:19;;;;;;;8.02;5.75;;;;;;;22.09;49.77;98104.34;5123494;27;20570;-54
2022/04/10 11:17:46;;;;;;;9.95;5.93;;;;;;;22.45;49.54;98104.34;5122642;27;20182;-52
2022/04/10 11:20:15;;;;;;;11.52;6.38;;;;;;;22.65;48.83;98105.81;5121447;27;20713;-53
2022/04/10 11:22:49;;;;;;;6.53;5.90;;;;;;;22.76;47.93;98107.41;5122657;27;20217;-53
2022/04/10 11:25:19;;;;;;;10.25;7.45;;;;;;;22.63;47.42;98118.34;5123243;27;20190;-53
2022/04/10 11:27:51;;;;;;;7.38;5.45;;;;;;;22.02;49.13;98107.72;5122355;27;20214;-54
2022/04/10 11:30:23;;;;;;;10.38;5.95;;;;;;;21.63;50.18;98099.22;5126871;27;20194;-53
2022/04/10 11:32:52;;;;;;;7.70;4.97;;;;;;;21.49;50.95;98099.69;5132539;27;20190;-53
2022/04/10 11:35:24;;;;;;;8.02;4.85;;;;;;;21.54;51.21;98103.59;5132530;27;20198;-53
2022/04/10 11:37:53;;;;;;;6.03;5.22;;;;;;;21.25;52.65;98100.22;5132727;27;20194;-53
2022/04/10 11:40:26;;;;;;;7.45;4.93;;;;;;;20.96;52.95;98098.53;5126237;27;20194;-53